Glen, Montana
Current Conditions -  °F | °C
As of 3:53 AM on Sunday 26 Oct 2014 (Local Time) from KDLN Reporting Station
Clear Clear  
Wind Chill: 40°   Ceiling: Unl
Heat Index: 45°   Visibility: 10mi
Dew Point: 32°   Wind: 9mph
Humidity: 60%   Direction: 220°SW
Pressure: 29.8"   Gusts: NA
Location:  45.48°N, 112.69°W
Report Text: KDLN 260953Z AUTO 22008KT 10SM CLR 07/00 A2980 RMK AO2 SLP052 T00720000
Loading
Personal Weather Stations






























Interactive Weather Map
Tropical Storm Tracking
New forecast layout! Learn more

10-Day Weather Forecast

Advertisements
Track Severe Weather on mobile